createdAt,value
2023-01-17T00:02:22.041Z,97567.84
2023-01-17T00:05:09.331Z,97563.75
2023-01-17T00:07:55.237Z,97554.13
2023-01-17T00:10:27.637Z,97551.44
2023-01-17T00:12:58.837Z,97538.91
2023-01-17T00:15:31.045Z,97541.59
2023-01-17T00:18:00.433Z,97537.97
2023-01-17T00:20:50.022Z,97538.03
2023-01-17T00:23:39.064Z,97529.06
2023-01-17T00:26:13.892Z,97525.75
2023-01-17T00:28:43.182Z,97515.09
2023-01-17T00:31:12.313Z,97508.75
2023-01-17T00:33:39.995Z,97506.44
2023-01-17T00:36:10.715Z,97515.03
2023-01-17T00:38:40.073Z,97509.44
2023-01-17T00:41:10.419Z,97503.44
2023-01-17T00:43:56.727Z,97504.91
2023-01-17T00:46:43.844Z,97505.28
2023-01-17T00:49:29.948Z,97507.78
2023-01-17T00:52:17.311Z,97506.47
2023-01-17T00:55:03.415Z,97495.81
2023-01-17T00:57:49.295Z,97500.31
2023-01-17T01:00:37.245Z,97497.16
2023-01-17T01:03:28.789Z,97496.47
2023-01-17T01:06:15.850Z,97491.31
2023-01-17T01:09:03.367Z,97500.09
2023-01-17T01:11:49.408Z,97494.00
2023-01-17T01:14:35.199Z,97496.88
2023-01-17T01:17:21.089Z,97492.34
2023-01-17T01:20:06.923Z,97493.84
2023-01-17T01:22:52.910Z,97488.53
2023-01-17T01:25:40.243Z,97497.44
2023-01-17T01:28:30.822Z,97492.00
2023-01-17T01:31:18.557Z,97488.53
2023-01-17T01:33:46.980Z,97478.75
2023-01-17T01:36:16.718Z,97488.53
2023-01-17T01:38:46.206Z,97481.41
2023-01-17T01:41:16.805Z,97485.16
2023-01-17T01:43:49.691Z,97485.22
2023-01-17T01:46:24.537Z,97482.94
2023-01-17T01:49:00.007Z,97481.16
2023-01-17T01:51:39.835Z,97478.97
2023-01-17T01:54:19.929Z,97469.66
2023-01-17T01:56:54.794Z,97463.19
2023-01-17T01:59:24.884Z,97461.72
2023-01-17T02:01:58.867Z,97465.34
2023-01-17T02:04:30.147Z,97463.88
2023-01-17T02:07:08.408Z,97464.72
2023-01-17T02:09:36.947Z,97470.16
2023-01-17T02:12:08.590Z,97473.63
2023-01-17T02:14:37.184Z,97448.69
2023-01-17T02:17:28.736Z,97465.34
2023-01-17T02:20:48.812Z,97473.50
2023-01-17T02:24:36.410Z,97463.09
2023-01-17T02:27:25.569Z,97465.06
2023-01-17T02:30:33.686Z,97459.03
2023-01-17T02:33:17.563Z,97449.41
2023-01-17T02:35:59.680Z,97450.53
2023-01-17T02:38:45.692Z,97454.84
2023-01-17T02:41:22.644Z,97442.94
2023-01-17T02:43:53.482Z,97453.50
2023-01-17T02:46:23.606Z,97447.91
2023-01-17T02:48:54.361Z,97441.97
2023-01-17T02:51:41.114Z,97445.31
2023-01-17T02:54:39.065Z,97437.00
2023-01-17T02:57:44.892Z,97441.00
2023-01-17T03:00:24.766Z,97450.00
2023-01-17T03:03:04.841Z,97446.38
2023-01-17T03:05:41.538Z,97434.25
2023-01-17T03:08:13.803Z,97436.06
2023-01-17T03:10:44.579Z,97432.59
2023-01-17T03:13:15.370Z,97443.34
2023-01-17T03:15:44.298Z,97442.75
2023-01-17T03:18:17.599Z,97428.19
2023-01-17T03:20:46.232Z,97440.75
2023-01-17T03:23:15.786Z,97441.75
2023-01-17T03:25:44.142Z,97434.13
2023-01-17T03:28:12.939Z,97430.16
2023-01-17T03:30:41.582Z,97428.19
2023-01-17T03:33:10.221Z,97429.03
2023-01-17T03:35:40.140Z,97422.91
2023-01-17T03:38:08.419Z,97426.88
2023-01-17T03:40:36.694Z,97423.88
2023-01-17T03:43:04.986Z,97426.53
2023-01-17T03:45:33.433Z,97429.03
2023-01-17T03:48:02.091Z,97433.19
2023-01-17T03:50:30.463Z,97426.22
2023-01-17T03:53:00.284Z,97432.38
2023-01-17T03:55:28.932Z,97427.91
2023-01-17T03:57:57.275Z,97428.88
2023-01-17T04:00:25.800Z,97431.53
2023-01-17T04:02:54.127Z,97427.91
2023-01-17T04:05:22.407Z,97429.03
2023-01-17T04:07:51.789Z,97430.84
2023-01-17T04:10:21.635Z,97423.72
2023-01-17T04:12:49.966Z,97421.38
2023-01-17T04:15:18.741Z,97421.56
2023-01-17T04:17:47.302Z,97426.84
2023-01-17T04:20:29.134Z,97426.84
2023-01-17T04:22:57.693Z,97432.44
2023-01-17T04:25:29.940Z,97433.81
2023-01-17T04:27:59.481Z,97424.03
2023-01-17T04:30:29.557Z,97424.22
2023-01-17T04:32:58.674Z,97426.84
2023-01-17T04:35:27.666Z,97421.56
2023-01-17T04:37:56.012Z,97430.00
2023-01-17T04:40:24.903Z,97419.94
2023-01-17T04:42:55.129Z,97421.22
2023-01-17T04:45:23.555Z,97425.41
2023-01-17T04:47:52.052Z,97422.06
2023-01-17T04:50:20.679Z,97425.53
2023-01-17T04:52:49.602Z,97424.41
2023-01-17T04:55:18.232Z,97418.94
2023-01-17T04:57:46.483Z,97427.56
2023-01-17T05:00:18.237Z,97420.16
2023-01-17T05:02:47.060Z,97425.59
2023-01-17T05:05:18.734Z,97425.28
2023-01-17T05:07:55.259Z,97415.53
2023-01-17T05:10:24.097Z,97421.72
2023-01-17T05:12:56.985Z,97423.53
2023-01-17T05:15:28.199Z,97433.28
2023-01-17T05:17:57.373Z,97430.16
2023-01-17T05:20:27.929Z,97428.34
2023-01-17T05:22:58.165Z,97434.97
2023-01-17T05:25:29.920Z,97433.50
2023-01-17T05:28:00.088Z,97436.34
2023-01-17T05:30:31.692Z,97440.81
2023-01-17T05:33:00.379Z,97444.59
2023-01-17T05:35:32.665Z,97449.06
2023-01-17T05:38:01.036Z,97445.44
2023-01-17T05:40:32.106Z,97448.75
2023-01-17T05:43:03.128Z,97447.09
2023-01-17T05:45:34.790Z,97453.72
2023-01-17T05:48:04.480Z,97456.91
2023-01-17T05:50:36.285Z,97459.25
2023-01-17T05:53:07.540Z,97458.09
2023-01-17T05:55:37.899Z,97454.78
2023-01-17T05:58:08.900Z,97448.50
2023-01-17T06:00:38.519Z,97451.34
2023-01-17T06:03:07.157Z,97450.50
2023-01-17T06:05:36.212Z,97456.66
2023-01-17T06:08:04.765Z,97456.66
2023-01-17T06:10:33.563Z,97456.34
2023-01-17T06:13:04.879Z,97461.16
2023-01-17T06:15:35.707Z,97463.97
2023-01-17T06:18:11.415Z,97469.25
2023-01-17T06:20:40.764Z,97469.59
2023-01-17T06:23:12.627Z,97471.56
2023-01-17T06:25:44.632Z,97478.19
2023-01-17T06:28:16.022Z,97481.34
2023-01-17T06:30:45.454Z,97477.13
2023-01-17T06:33:17.853Z,97469.28
2023-01-17T06:35:51.346Z,97466.41
2023-01-17T06:38:19.941Z,97468.41
2023-01-17T06:40:48.672Z,97470.38
2023-01-17T06:43:17.493Z,97474.34
2023-01-17T06:45:46.108Z,97465.38
2023-01-17T06:48:16.609Z,97475.16
2023-01-17T06:50:46.736Z,97480.13
2023-01-17T06:53:16.327Z,97474.84
2023-01-17T06:55:45.180Z,97481.97
2023-01-17T06:58:15.048Z,97483.69
2023-01-17T07:00:44.785Z,97490.81
2023-01-17T07:03:22.353Z,97492.63
2023-01-17T07:05:51.105Z,97488.66
2023-01-17T07:08:20.511Z,97486.38
2023-01-17T07:10:50.202Z,97492.28
2023-01-17T07:13:18.714Z,97502.88
2023-01-17T07:15:47.147Z,97495.31
2023-01-17T07:18:20.698Z,97498.13
2023-01-17T07:20:49.167Z,97505.91
2023-01-17T07:23:18.365Z,97510.28
2023-01-17T07:25:53.470Z,97498.38
2023-01-17T07:28:22.479Z,97504.00
2023-01-17T07:30:50.953Z,97504.69
2023-01-17T07:33:21.114Z,97509.22
2023-01-17T07:35:49.833Z,97504.56
2023-01-17T07:38:21.443Z,97512.63
2023-01-17T07:40:49.753Z,97517.59
2023-01-17T07:43:18.103Z,97513.00
2023-01-17T07:45:50.865Z,97517.31
2023-01-17T07:48:22.802Z,97514.97
2023-01-17T07:50:56.342Z,97508.19
2023-01-17T07:53:26.502Z,97521.72
2023-01-17T07:55:55.579Z,97518.28
2023-01-17T07:58:24.212Z,97520.88
2023-01-17T08:00:52.773Z,97525.56
2023-01-17T08:03:22.578Z,97524.44
2023-01-17T08:05:57.769Z,97531.56
2023-01-17T08:08:26.551Z,97536.66
2023-01-17T08:10:54.955Z,97533.94
2023-01-17T08:13:23.320Z,97531.06
2023-01-17T08:15:54.561Z,97531.97
2023-01-17T08:18:24.335Z,97532.00
2023-01-17T08:20:52.768Z,97543.63
2023-01-17T08:23:21.258Z,97544.81
2023-01-17T08:25:50.075Z,97539.94
2023-01-17T08:28:19.926Z,97546.84
2023-01-17T08:30:48.408Z,97547.91
2023-01-17T08:33:17.147Z,97555.91
2023-01-17T08:35:54.788Z,97564.38
2023-01-17T08:38:23.854Z,97571.00
2023-01-17T08:40:52.599Z,97581.66
2023-01-17T08:43:21.427Z,97586.16
2023-01-17T08:45:51.406Z,97592.44
2023-01-17T08:48:19.733Z,97599.44
2023-01-17T08:50:48.018Z,97601.50
2023-01-17T08:53:21.709Z,97607.09
2023-01-17T08:55:51.347Z,97602.63
2023-01-17T08:58:19.900Z,97606.75
2023-01-17T09:00:48.347Z,97626.28
2023-01-17T09:03:20.019Z,97638.25
2023-01-17T09:05:48.542Z,97643.53
2023-01-17T09:08:18.244Z,97643.22
2023-01-17T09:10:46.633Z,97661.34
2023-01-17T09:13:20.196Z,97671.47
2023-01-17T09:15:48.560Z,97678.81
2023-01-17T09:18:17.452Z,97681.16
2023-01-17T09:20:45.828Z,97692.44
2023-01-17T09:23:15.106Z,97690.19
2023-01-17T09:25:53.304Z,97700.19
2023-01-17T09:28:22.012Z,97680.06
2023-01-17T09:30:51.000Z,97702.47
2023-01-17T09:33:24.559Z,97695.66
2023-01-17T09:35:53.037Z,97723.19
2023-01-17T09:38:21.808Z,97717.09
2023-01-17T09:40:51.608Z,97735.88
2023-01-17T09:43:27.221Z,97732.78
2023-01-17T09:45:55.770Z,97737.31
2023-01-17T09:48:35.910Z,97740.59
2023-01-17T09:51:17.166Z,97746.41
2023-01-17T09:53:46.033Z,97747.09
2023-01-17T09:56:25.259Z,97757.53
2023-01-17T09:59:20.468Z,97757.94
2023-01-17T10:02:06.369Z,97768.81
2023-01-17T10:04:57.418Z,97760.34
2023-01-17T10:07:45.004Z,97792.22
2023-01-17T10:10:33.775Z,97783.00
2023-01-17T10:13:26.388Z,97775.28
2023-01-17T10:16:19.996Z,97789.28
2023-01-17T10:19:09.346Z,97778.00
2023-01-17T10:22:02.301Z,97791.25
2023-01-17T10:25:05.116Z,97788.22
2023-01-17T10:27:39.887Z,97788.97
2023-01-17T10:30:24.309Z,97802.63
2023-01-17T10:32:52.732Z,97792.31
2023-01-17T10:35:27.116Z,97814.59
2023-01-17T10:37:59.896Z,97803.66
2023-01-17T10:40:41.368Z,97814.91
2023-01-17T10:43:20.879Z,97803.66
2023-01-17T10:45:56.359Z,97819.28
2023-01-17T10:48:39.951Z,97815.34
2023-01-17T10:51:49.954Z,97806.41
2023-01-17T10:54:41.036Z,97821.50
2023-01-17T10:57:20.221Z,97814.13
2023-01-17T10:59:48.947Z,97818.78
2023-01-17T11:02:28.918Z,97817.38
2023-01-17T11:05:03.513Z,97824.81
2023-01-17T11:07:32.138Z,97823.50
2023-01-17T11:10:00.754Z,97834.69
2023-01-17T11:12:33.618Z,97837.47
2023-01-17T11:15:07.802Z,97838.59
2023-01-17T11:17:44.789Z,97834.69
2023-01-17T11:20:24.839Z,97849.91
2023-01-17T11:23:14.971Z,97850.56
2023-01-17T11:25:52.374Z,97853.75
2023-01-17T11:28:26.356Z,97858.44
2023-01-17T11:30:58.034Z,97861.72
2023-01-17T11:33:46.987Z,97864.31
2023-01-17T11:36:22.208Z,97861.28
2023-01-17T11:38:59.657Z,97858.72
2023-01-17T11:41:33.895Z,97872.81
2023-01-17T11:44:04.421Z,97867.34
2023-01-17T11:46:33.284Z,97877.94
2023-01-17T11:49:03.230Z,97889.69
2023-01-17T11:51:41.424Z,97887.50
2023-01-17T11:54:24.573Z,97891.88
2023-01-17T11:56:59.750Z,97889.47
2023-01-17T11:59:34.720Z,97892.50
2023-01-17T12:02:45.721Z,97892.22
2023-01-17T12:05:47.017Z,97887.38
2023-01-17T12:08:32.418Z,97893.97
2023-01-17T12:11:13.705Z,97893.69
2023-01-17T12:14:00.705Z,97889.34
2023-01-17T12:17:02.891Z,97890.44
2023-01-17T12:19:46.160Z,97887.13
2023-01-17T12:22:37.554Z,97860.56
2023-01-17T12:25:28.064Z,97884.53
2023-01-17T12:28:32.043Z,97867.38
2023-01-17T12:31:24.720Z,97872.25
2023-01-17T12:33:58.784Z,97884.25
2023-01-17T12:36:43.565Z,97894.50
2023-01-17T12:39:15.036Z,97888.81
2023-01-17T12:41:58.287Z,97909.88
2023-01-17T12:44:48.223Z,97917.47
2023-01-17T12:47:21.145Z,97909.28
2023-01-17T12:50:04.006Z,97920.66
2023-01-17T12:52:50.156Z,97916.63
2023-01-17T12:55:34.212Z,97929.69
2023-01-17T12:58:12.040Z,97918.41
2023-01-17T13:00:41.049Z,97927.81
2023-01-17T13:03:20.622Z,97929.78
2023-01-17T13:05:51.317Z,97942.34
2023-01-17T13:08:29.548Z,97948.34
2023-01-17T13:11:07.768Z,97931.13
2023-01-17T13:13:36.793Z,97951.31
2023-01-17T13:16:16.229Z,97951.97
2023-01-17T13:18:48.965Z,97954.13
2023-01-17T13:21:30.242Z,97964.13
2023-01-17T13:24:27.095Z,97956.78
2023-01-17T13:27:36.749Z,97963.16
2023-01-17T13:30:45.941Z,97955.47
2023-01-17T13:33:52.806Z,97980.31
2023-01-17T13:36:44.003Z,97965.63
2023-01-17T13:39:52.031Z,97976.59
2023-01-17T13:42:41.879Z,97996.59
2023-01-17T13:45:20.939Z,98003.41
2023-01-17T13:47:49.638Z,98007.72
2023-01-17T13:50:51.368Z,98004.56
2023-01-17T13:53:59.079Z,98019.13
2023-01-17T13:56:37.889Z,98027.41
2023-01-17T13:59:30.713Z,98012.78
2023-01-17T14:01:59.289Z,98037.34
2023-01-17T14:05:16.408Z,98042.22
2023-01-17T14:07:49.395Z,98058.84
2023-01-17T14:10:31.526Z,98059.41
2023-01-17T14:13:00.599Z,98065.66
2023-01-17T14:15:32.755Z,98066.66
2023-01-17T14:18:03.237Z,98071.81
2023-01-17T14:21:06.237Z,98068.84
2023-01-17T14:24:05.015Z,98080.88
2023-01-17T14:26:45.729Z,98080.56
2023-01-17T14:29:53.583Z,98089.22
2023-01-17T14:32:25.092Z,98094.25
2023-01-17T14:34:54.507Z,98088.69
2023-01-17T14:37:39.285Z,98096.91
2023-01-17T14:40:23.887Z,98092.84
2023-01-17T14:43:02.520Z,98103.72
2023-01-17T14:45:34.014Z,98100.66
2023-01-17T14:48:07.179Z,98109.03
2023-01-17T14:50:40.507Z,98114.19
2023-01-17T14:53:21.500Z,98121.59
2023-01-17T14:55:57.571Z,98111.53
2023-01-17T14:58:29.926Z,98124.38
2023-01-17T15:01:02.777Z,98129.25
2023-01-17T15:03:36.525Z,98130.94
2023-01-17T15:06:17.552Z,98129.66
2023-01-17T15:08:49.003Z,98148.78
2023-01-17T15:11:23.653Z,98158.41
2023-01-17T15:13:57.525Z,98155.06
2023-01-17T15:16:29.516Z,98160.78
2023-01-17T15:18:59.712Z,98157.69
2023-01-17T15:21:33.254Z,98168.84
2023-01-17T15:24:09.350Z,98172.75
2023-01-17T15:26:42.872Z,98181.00
2023-01-17T15:29:25.227Z,98176.25
2023-01-17T15:31:58.190Z,98194.78
2023-01-17T15:34:33.449Z,98185.13
2023-01-17T15:37:05.671Z,98200.81
2023-01-17T15:39:40.219Z,98208.75
2023-01-17T15:42:23.679Z,98204.53
2023-01-17T15:44:56.860Z,98211.69
2023-01-17T15:47:30.911Z,98209.72
2023-01-17T15:50:00.803Z,98218.19
2023-01-17T15:52:30.670Z,98215.47
2023-01-17T15:55:16.551Z,98224.88
2023-01-17T15:57:47.706Z,98226.13
2023-01-17T16:00:24.233Z,98229.53
2023-01-17T16:02:56.238Z,98236.63
2023-01-17T16:05:44.063Z,98236.78
2023-01-17T16:08:39.583Z,98246.72
2023-01-17T16:11:15.425Z,98248.53
2023-01-17T16:13:47.261Z,98257.53
2023-01-17T16:16:26.868Z,98264.47
2023-01-17T16:19:03.060Z,98265.03
2023-01-17T16:21:33.334Z,98261.16
2023-01-17T16:24:03.840Z,98264.94
2023-01-17T16:26:33.782Z,98265.66
2023-01-17T16:29:02.256Z,98269.31
2023-01-17T16:31:30.735Z,98267.97
2023-01-17T16:33:59.493Z,98276.25
2023-01-17T16:36:27.897Z,98272.13
2023-01-17T16:38:56.393Z,98264.31
2023-01-17T16:41:24.837Z,98262.13
2023-01-17T16:44:06.350Z,98264.53
2023-01-17T16:46:38.387Z,98271.03
2023-01-17T16:49:08.420Z,98259.63
2023-01-17T16:51:36.738Z,98270.00
2023-01-17T16:54:06.927Z,98262.53
2023-01-17T16:56:35.377Z,98266.63
2023-01-17T16:59:05.483Z,98259.47
2023-01-17T17:01:33.952Z,98264.50
2023-01-17T17:04:05.491Z,98270.19
2023-01-17T17:06:34.414Z,98279.81
2023-01-17T17:09:03.322Z,98278.47
2023-01-17T17:11:31.700Z,98286.19
2023-01-17T17:14:00.132Z,98288.81
2023-01-17T17:16:31.732Z,98292.44
2023-01-17T17:19:02.614Z,98290.81
2023-01-17T17:21:32.979Z,98294.97
2023-01-17T17:24:03.130Z,98297.91
2023-01-17T17:26:34.551Z,98292.75
2023-01-17T17:29:05.077Z,98295.38
2023-01-17T17:31:35.211Z,98298.56
2023-01-17T17:34:07.415Z,98303.25
2023-01-17T17:36:36.913Z,98309.56
2023-01-17T17:39:09.337Z,98311.19
2023-01-17T17:41:41.944Z,98315.75
2023-01-17T17:44:10.528Z,98316.56
2023-01-17T17:46:43.374Z,98313.72
2023-01-17T17:49:11.876Z,98322.91
2023-01-17T17:51:41.638Z,98327.03
2023-01-17T17:54:15.379Z,98332.72
2023-01-17T17:56:47.488Z,98335.78
2023-01-17T17:59:19.694Z,98338.78
2023-01-17T18:01:50.375Z,98346.31
2023-01-17T18:04:20.467Z,98347.34
2023-01-17T18:06:49.021Z,98353.75
2023-01-17T18:09:19.412Z,98355.44
2023-01-17T18:11:47.858Z,98357.50
2023-01-17T18:14:21.319Z,98367.59
2023-01-17T18:16:51.757Z,98377.44
2023-01-17T18:19:23.600Z,98381.75
2023-01-17T18:21:53.308Z,98387.91
2023-01-17T18:24:23.906Z,98378.81
2023-01-17T18:26:54.427Z,98390.09
2023-01-17T18:29:24.269Z,98389.19
2023-01-17T18:31:55.655Z,98391.81
2023-01-17T18:34:29.973Z,98397.94
2023-01-17T18:36:59.209Z,98401.88
2023-01-17T18:39:30.952Z,98397.31
2023-01-17T18:42:00.085Z,98406.31
2023-01-17T18:44:30.245Z,98396.25
2023-01-17T18:47:04.656Z,98398.53
2023-01-17T18:49:34.419Z,98404.06
2023-01-17T18:52:03.032Z,98403.34
2023-01-17T18:54:31.992Z,98401.56
2023-01-17T18:57:00.451Z,98420.88
2023-01-17T18:59:28.815Z,98418.25
2023-01-17T19:01:58.802Z,98414.16
2023-01-17T19:04:31.748Z,98427.03
2023-01-17T19:07:00.101Z,98421.50
2023-01-17T19:09:28.804Z,98430.28
2023-01-17T19:11:58.358Z,98427.63
2023-01-17T19:14:27.123Z,98418.38
2023-01-17T19:16:56.282Z,98422.81
2023-01-17T19:19:25.167Z,98428.69
2023-01-17T19:21:54.820Z,98443.97
2023-01-17T19:24:23.212Z,98431.44
2023-01-17T19:26:53.338Z,98446.72
2023-01-17T19:29:22.747Z,98449.56
2023-01-17T19:31:51.279Z,98448.25
2023-01-17T19:34:20.294Z,98454.84
2023-01-17T19:36:48.742Z,98448.50
2023-01-17T19:39:19.963Z,98452.22
2023-01-17T19:41:48.342Z,98452.09
2023-01-17T19:44:17.063Z,98448.25
2023-01-17T19:46:46.183Z,98451.25
2023-01-17T19:49:19.739Z,98452.56
2023-01-17T19:51:49.567Z,98455.69
2023-01-17T19:54:19.466Z,98450.41
2023-01-17T19:56:47.765Z,98453.75
2023-01-17T19:59:20.119Z,98463.13
2023-01-17T20:01:49.043Z,98470.78
2023-01-17T20:04:21.206Z,98468.81
2023-01-17T20:06:49.490Z,98473.88
2023-01-17T20:09:19.250Z,98474.72
2023-01-17T20:11:49.937Z,98469.94
2023-01-17T20:14:18.526Z,98469.44
2023-01-17T20:16:49.601Z,98471.91
2023-01-17T20:19:18.088Z,98476.63
2023-01-17T20:21:46.507Z,98481.16
2023-01-17T20:24:16.765Z,98478.88
2023-01-17T20:26:46.711Z,98484.38
2023-01-17T20:29:18.045Z,98485.38
2023-01-17T20:31:47.490Z,98482.00
2023-01-17T20:34:19.692Z,98489.88
2023-01-17T20:36:48.441Z,98479.78
2023-01-17T20:39:17.399Z,98477.53
2023-01-17T20:41:49.070Z,98483.16
2023-01-17T20:44:18.718Z,98476.75
2023-01-17T20:46:48.245Z,98478.78
2023-01-17T20:49:20.088Z,98480.47
2023-01-17T20:51:49.007Z,98482.19
2023-01-17T20:54:20.221Z,98492.38
2023-01-17T20:56:50.597Z,98498.59
2023-01-17T20:59:21.760Z,98497.41
2023-01-17T21:01:50.674Z,98502.19
2023-01-17T21:04:25.373Z,98498.81
2023-01-17T21:06:54.767Z,98503.16
2023-01-17T21:09:23.119Z,98505.56
2023-01-17T21:11:54.551Z,98506.56
2023-01-17T21:14:22.859Z,98506.63
2023-01-17T21:16:51.393Z,98513.69
2023-01-17T21:19:20.467Z,98517.28
2023-01-17T21:21:50.153Z,98516.28
2023-01-17T21:24:20.175Z,98516.28
2023-01-17T21:26:51.408Z,98526.47
2023-01-17T21:29:23.410Z,98517.72
2023-01-17T21:31:51.649Z,98528.94
2023-01-17T21:34:20.307Z,98535.88
2023-01-17T21:36:48.642Z,98535.38
2023-01-17T21:39:19.891Z,98537.28
2023-01-17T21:41:50.867Z,98546.84
2023-01-17T21:44:22.984Z,98542.25
2023-01-17T21:46:55.941Z,98556.38
2023-01-17T21:49:25.479Z,98557.06
2023-01-17T21:52:11.326Z,98564.22
2023-01-17T21:54:57.285Z,98571.78
2023-01-17T21:57:42.986Z,98581.91
2023-01-17T22:00:15.657Z,98580.34
2023-01-17T22:02:44.560Z,98590.03
2023-01-17T22:05:14.384Z,98585.50
2023-01-17T22:08:03.459Z,98593.94
2023-01-17T22:10:31.845Z,98596.66
2023-01-17T22:13:00.161Z,98594.22
2023-01-17T22:15:29.877Z,98602.78
2023-01-17T22:17:58.600Z,98594.31
2023-01-17T22:20:27.161Z,98595.59
2023-01-17T22:22:55.676Z,98606.16
2023-01-17T22:25:24.470Z,98608.69
2023-01-17T22:27:52.887Z,98606.47
2023-01-17T22:30:21.440Z,98602.38
2023-01-17T22:32:51.084Z,98601.63
2023-01-17T22:35:19.392Z,98605.53
2023-01-17T22:37:47.646Z,98605.28
2023-01-17T22:40:16.816Z,98613.09
2023-01-17T22:42:45.150Z,98613.00
2023-01-17T22:45:14.354Z,98610.47
2023-01-17T22:47:43.500Z,98609.34
2023-01-17T22:50:14.891Z,98610.28
2023-01-17T22:52:43.195Z,98606.38
2023-01-17T22:55:12.401Z,98608.50
2023-01-17T22:57:40.657Z,98608.06
2023-01-17T23:00:14.631Z,98621.97
2023-01-17T23:02:43.707Z,98615.66
2023-01-17T23:05:13.463Z,98622.59
2023-01-17T23:07:44.832Z,98630.50
2023-01-17T23:10:37.061Z,98636.09
2023-01-17T23:13:05.905Z,98641.53
2023-01-17T23:15:56.156Z,98648.28
2023-01-17T23:18:42.441Z,98643.44
2023-01-17T23:21:12.115Z,98647.50
2023-01-17T23:23:40.334Z,98652.69
2023-01-17T23:26:08.703Z,98651.44
2023-01-17T23:28:35.965Z,98652.47
2023-01-17T23:31:06.460Z,98656.72
2023-01-17T23:33:34.817Z,98668.50
2023-01-17T23:36:03.143Z,98663.75
2023-01-17T23:38:34.274Z,98673.03
2023-01-17T23:41:23.023Z,98669.38
2023-01-17T23:43:55.922Z,98671.44
2023-01-17T23:46:26.636Z,98666.16
2023-01-17T23:48:55.902Z,98672.41
2023-01-17T23:51:24.315Z,98662.81
2023-01-17T23:54:05.190Z,98672.94
2023-01-17T23:56:33.542Z,98669.13
2023-01-17T23:59:02.218Z,98663.69
